createdAt,value
2022-08-26T00:02:12.693Z,81.58
2022-08-26T00:04:40.618Z,81.68
2022-08-26T00:07:08.754Z,81.67
2022-08-26T00:09:39.150Z,81.67
2022-08-26T00:12:09.589Z,81.88
2022-08-26T00:14:40.618Z,81.72
2022-08-26T00:17:09.103Z,81.74
2022-08-26T00:19:37.562Z,81.93
2022-08-26T00:22:05.862Z,81.88
2022-08-26T00:24:33.675Z,81.95
2022-08-26T00:27:01.375Z,82.03
2022-08-26T00:29:30.389Z,82.04
2022-08-26T00:32:03.019Z,82.06
2022-08-26T00:34:31.912Z,81.81
2022-08-26T00:36:59.572Z,82.03
2022-08-26T00:39:27.286Z,82.07
2022-08-26T00:41:55.879Z,82.06
2022-08-26T00:44:23.542Z,82.15
2022-08-26T00:46:55.276Z,82.11
2022-08-26T00:49:40.570Z,82.19
2022-08-26T00:52:14.479Z,82.34
2022-08-26T00:54:49.248Z,82.47
2022-08-26T00:57:20.171Z,82.34
2022-08-26T00:59:54.547Z,82.34
2022-08-26T01:02:23.126Z,82.49
2022-08-26T01:04:55.993Z,82.36
2022-08-26T01:07:25.345Z,82.40
2022-08-26T01:09:53.313Z,82.56
2022-08-26T01:12:23.630Z,82.63
2022-08-26T01:14:53.323Z,82.65
2022-08-26T01:17:21.342Z,82.59
2022-08-26T01:19:53.559Z,82.70
2022-08-26T01:22:30.046Z,82.42
2022-08-26T01:25:01.308Z,82.42
2022-08-26T01:27:32.930Z,82.46
2022-08-26T01:30:03.850Z,82.64
2022-08-26T01:32:33.495Z,82.74
2022-08-26T01:35:02.037Z,82.77
2022-08-26T01:37:34.718Z,82.82
2022-08-26T01:40:03.198Z,82.89
2022-08-26T01:42:31.156Z,83.05
2022-08-26T01:45:10.259Z,82.83
2022-08-26T01:47:39.175Z,82.77
2022-08-26T01:50:11.707Z,82.64
2022-08-26T01:52:43.099Z,82.80
2022-08-26T01:55:15.238Z,82.75
2022-08-26T01:58:05.349Z,82.87
2022-08-26T02:00:35.326Z,83.01
2022-08-26T02:03:22.223Z,83.03
2022-08-26T02:05:53.415Z,83.17
2022-08-26T02:08:27.182Z,82.86
2022-08-26T02:10:55.298Z,83.01
2022-08-26T02:13:26.603Z,82.86
2022-08-26T02:15:55.344Z,83.06
2022-08-26T02:18:25.160Z,83.06
2022-08-26T02:20:54.750Z,82.82
2022-08-26T02:23:24.374Z,82.91
2022-08-26T02:25:52.167Z,82.88
2022-08-26T02:28:19.865Z,82.90
2022-08-26T02:30:47.679Z,82.77
2022-08-26T02:33:15.422Z,82.59
2022-08-26T02:35:43.338Z,82.65
2022-08-26T02:38:11.088Z,82.54
2022-08-26T02:40:43.537Z,82.40
2022-08-26T02:43:12.413Z,82.52
2022-08-26T02:45:41.556Z,82.54
2022-08-26T02:48:15.074Z,82.51
2022-08-26T02:50:43.591Z,82.79
2022-08-26T02:53:12.205Z,82.76
2022-08-26T02:55:41.780Z,82.59
2022-08-26T02:58:11.198Z,82.60
2022-08-26T03:00:39.837Z,82.44
2022-08-26T03:03:23.480Z,82.64
2022-08-26T03:05:52.786Z,82.60
2022-08-26T03:08:22.237Z,82.48
2022-08-26T03:10:50.743Z,82.70
2022-08-26T03:13:18.582Z,82.52
2022-08-26T03:15:47.674Z,82.69
2022-08-26T03:18:16.186Z,82.47
2022-08-26T03:20:43.951Z,82.38
2022-08-26T03:23:12.562Z,82.29
2022-08-26T03:25:40.600Z,82.22
2022-08-26T03:28:09.595Z,82.28
2022-08-26T03:30:44.855Z,82.32
2022-08-26T03:33:14.483Z,82.27
2022-08-26T03:35:44.161Z,82.47
2022-08-26T03:38:11.845Z,82.32
2022-08-26T03:40:40.643Z,82.29
2022-08-26T03:43:10.181Z,82.27
2022-08-26T03:45:39.393Z,82.19
2022-08-26T03:48:09.060Z,82.23
2022-08-26T03:50:37.278Z,82.18
2022-08-26T03:53:07.290Z,82.23
2022-08-26T03:55:39.446Z,82.23
2022-08-26T03:58:07.291Z,82.15
2022-08-26T04:00:34.905Z,82.04
2022-08-26T04:03:04.078Z,81.90
2022-08-26T04:05:32.003Z,81.73
2022-08-26T04:07:59.967Z,81.62
2022-08-26T04:10:28.922Z,81.56
2022-08-26T04:12:59.402Z,81.46
2022-08-26T04:15:27.999Z,81.47
2022-08-26T04:17:57.273Z,81.52
2022-08-26T04:20:26.734Z,81.56
2022-08-26T04:22:54.482Z,81.49
2022-08-26T04:25:22.533Z,81.67
2022-08-26T04:27:52.190Z,81.57
2022-08-26T04:30:20.280Z,81.41
2022-08-26T04:32:49.648Z,81.38
2022-08-26T04:35:17.947Z,81.45
2022-08-26T04:37:46.542Z,81.63
2022-08-26T04:40:14.747Z,81.49
2022-08-26T04:42:42.862Z,81.51
2022-08-26T04:45:11.728Z,81.29
2022-08-26T04:47:39.481Z,81.14
2022-08-26T04:50:08.235Z,81.31
2022-08-26T04:52:38.993Z,81.13
2022-08-26T04:55:08.437Z,81.36
2022-08-26T04:57:36.581Z,81.24
2022-08-26T05:00:06.868Z,81.35
2022-08-26T05:02:34.941Z,81.41
2022-08-26T05:05:03.202Z,81.45
2022-08-26T05:07:31.392Z,81.23
2022-08-26T05:10:00.247Z,81.28
2022-08-26T05:12:29.444Z,81.21
2022-08-26T05:14:57.497Z,81.27
2022-08-26T05:17:27.167Z,81.19
2022-08-26T05:19:55.333Z,81.51
2022-08-26T05:22:23.130Z,81.37
2022-08-26T05:24:50.733Z,81.49
2022-08-26T05:27:18.360Z,81.17
2022-08-26T05:29:46.143Z,81.16
2022-08-26T05:32:14.881Z,80.98
2022-08-26T05:34:42.903Z,80.91
2022-08-26T05:37:10.863Z,80.96
2022-08-26T05:39:43.501Z,80.82
2022-08-26T05:42:19.769Z,80.75
2022-08-26T05:44:54.148Z,80.85
2022-08-26T05:47:24.648Z,80.57
2022-08-26T05:49:52.710Z,80.51
2022-08-26T05:52:20.687Z,80.31
2022-08-26T05:54:48.435Z,80.51
2022-08-26T05:57:16.099Z,80.38
2022-08-26T05:59:46.307Z,80.55
2022-08-26T06:02:13.906Z,80.46
2022-08-26T06:04:42.013Z,80.57
2022-08-26T06:07:11.794Z,80.56
2022-08-26T06:09:41.373Z,80.70
2022-08-26T06:12:09.654Z,80.81
2022-08-26T06:14:37.541Z,80.92
2022-08-26T06:17:05.256Z,81.08
2022-08-26T06:19:34.428Z,81.13
2022-08-26T06:22:23.710Z,80.98
2022-08-26T06:25:07.912Z,81.20
2022-08-26T06:27:37.614Z,81.00
2022-08-26T06:30:05.912Z,80.89
2022-08-26T06:32:34.116Z,80.90
2022-08-26T06:35:01.752Z,80.82
2022-08-26T06:37:29.394Z,80.31
2022-08-26T06:39:57.668Z,80.08
2022-08-26T06:42:25.574Z,79.62
2022-08-26T06:44:54.635Z,79.78
2022-08-26T06:47:22.372Z,79.47
2022-08-26T06:49:50.336Z,79.33
2022-08-26T06:52:22.928Z,79.22
2022-08-26T06:54:52.167Z,79.01
2022-08-26T06:57:20.764Z,78.50
2022-08-26T06:59:51.193Z,78.44
2022-08-26T07:02:19.433Z,78.22
2022-08-26T07:04:48.470Z,77.69
2022-08-26T07:07:18.888Z,77.78
2022-08-26T07:09:52.606Z,77.73
2022-08-26T07:12:21.080Z,77.57
2022-08-26T07:14:48.708Z,77.61
2022-08-26T07:17:16.625Z,77.50
2022-08-26T07:19:44.292Z,77.17
2022-08-26T07:22:12.538Z,77.39
2022-08-26T07:24:42.452Z,77.10
2022-08-26T07:27:14.428Z,76.80
2022-08-26T07:29:43.680Z,76.47
2022-08-26T07:32:19.244Z,76.65
2022-08-26T07:34:46.989Z,76.58
2022-08-26T07:37:15.219Z,76.23
2022-08-26T07:39:45.647Z,76.16
2022-08-26T07:42:15.292Z,75.82
2022-08-26T07:44:43.952Z,75.60
2022-08-26T07:47:24.984Z,75.55
2022-08-26T07:49:57.273Z,75.49
2022-08-26T07:52:27.972Z,75.25
2022-08-26T07:55:00.954Z,75.09
2022-08-26T07:57:28.718Z,74.82
2022-08-26T07:59:56.837Z,74.59
2022-08-26T08:02:25.606Z,74.44
2022-08-26T08:04:54.566Z,74.33
2022-08-26T08:07:38.784Z,73.91
2022-08-26T08:10:17.367Z,73.73
2022-08-26T08:12:45.252Z,73.47
2022-08-26T08:15:14.466Z,73.80
2022-08-26T08:17:43.851Z,73.33
2022-08-26T08:20:13.693Z,72.95
2022-08-26T08:22:43.069Z,72.65
2022-08-26T08:25:12.028Z,72.41
2022-08-26T08:27:42.620Z,72.38
2022-08-26T08:30:22.850Z,72.48
2022-08-26T08:32:52.246Z,72.27
2022-08-26T08:35:22.371Z,71.69
2022-08-26T08:37:54.246Z,71.51
2022-08-26T08:40:25.276Z,71.71
2022-08-26T08:43:06.066Z,71.62
2022-08-26T08:45:57.748Z,71.16
2022-08-26T08:48:31.820Z,70.67
2022-08-26T08:51:22.396Z,70.91
2022-08-26T08:53:54.632Z,70.73
2022-08-26T08:56:33.079Z,70.87
2022-08-26T08:59:20.461Z,70.65
2022-08-26T09:01:55.527Z,70.50
2022-08-26T09:04:50.246Z,70.18
2022-08-26T09:07:26.163Z,69.94
2022-08-26T09:10:12.755Z,69.84
2022-08-26T09:12:40.540Z,69.79
2022-08-26T09:15:30.689Z,69.67
2022-08-26T09:18:17.308Z,69.47
2022-08-26T09:21:04.772Z,69.43
2022-08-26T09:23:35.802Z,69.01
2022-08-26T09:26:16.658Z,68.84
2022-08-26T09:28:55.859Z,68.44
2022-08-26T09:31:30.806Z,67.82
2022-08-26T09:34:17.433Z,67.71
2022-08-26T09:36:49.726Z,67.18
2022-08-26T09:39:23.530Z,66.97
2022-08-26T09:42:09.713Z,66.65
2022-08-26T09:44:57.805Z,66.77
2022-08-26T09:47:37.943Z,66.48
2022-08-26T09:50:23.313Z,66.36
2022-08-26T09:53:14.320Z,65.70
2022-08-26T09:55:47.904Z,65.44
2022-08-26T09:58:32.174Z,65.00
2022-08-26T10:01:05.638Z,65.08
2022-08-26T10:03:38.057Z,65.04
2022-08-26T10:06:24.358Z,64.96
2022-08-26T10:08:58.983Z,64.72
2022-08-26T10:11:53.573Z,64.62
2022-08-26T10:14:31.632Z,64.37
2022-08-26T10:17:17.877Z,64.00
2022-08-26T10:19:57.091Z,63.66
2022-08-26T10:22:42.190Z,63.66
2022-08-26T10:25:16.701Z,63.71
2022-08-26T10:28:05.588Z,63.74
2022-08-26T10:30:39.986Z,63.10
2022-08-26T10:33:15.372Z,62.83
2022-08-26T10:35:52.270Z,62.72
2022-08-26T10:38:30.370Z,62.47
2022-08-26T10:41:10.770Z,62.01
2022-08-26T10:43:51.425Z,61.76
2022-08-26T10:46:23.967Z,61.85
2022-08-26T10:49:17.811Z,61.71
2022-08-26T10:51:55.550Z,61.12
2022-08-26T10:54:41.203Z,60.61
2022-08-26T10:57:41.113Z,60.05
2022-08-26T11:00:32.217Z,60.31
2022-08-26T11:03:33.379Z,59.60
2022-08-26T11:06:16.932Z,59.01
2022-08-26T11:08:50.690Z,58.78
2022-08-26T11:11:40.303Z,58.52
2022-08-26T11:14:33.993Z,58.24
2022-08-26T11:17:12.443Z,58.09
2022-08-26T11:20:02.131Z,57.96
2022-08-26T11:22:35.460Z,57.63
2022-08-26T11:25:09.447Z,57.56
2022-08-26T11:27:40.027Z,57.08
2022-08-26T11:30:15.689Z,57.09
2022-08-26T11:32:52.823Z,56.27
2022-08-26T11:35:20.604Z,56.25
2022-08-26T11:37:53.005Z,56.01
2022-08-26T11:40:26.483Z,55.81
2022-08-26T11:42:57.022Z,55.96
2022-08-26T11:45:31.449Z,55.66
2022-08-26T11:48:22.114Z,55.64
2022-08-26T11:50:57.135Z,54.89
2022-08-26T11:53:26.055Z,55.09
2022-08-26T11:55:58.032Z,54.66
2022-08-26T11:58:27.720Z,54.46
2022-08-26T12:01:03.517Z,54.16
2022-08-26T12:03:45.720Z,53.23
2022-08-26T12:06:22.798Z,52.87
2022-08-26T12:08:53.465Z,52.40
2022-08-26T12:11:24.896Z,52.93
2022-08-26T12:14:04.918Z,52.61
2022-08-26T12:16:40.197Z,52.61
2022-08-26T12:19:28.605Z,52.20
2022-08-26T12:22:08.554Z,52.43
2022-08-26T12:24:43.760Z,52.03
2022-08-26T12:27:23.150Z,51.88
2022-08-26T12:30:13.995Z,51.02
2022-08-26T12:32:57.495Z,50.91
2022-08-26T12:35:28.650Z,49.18
2022-08-26T12:37:57.966Z,49.06
2022-08-26T12:40:34.357Z,48.65
2022-08-26T12:43:04.762Z,48.17
2022-08-26T12:45:43.090Z,47.66
2022-08-26T12:48:25.763Z,46.16
2022-08-26T12:50:53.647Z,45.20
2022-08-26T12:53:23.036Z,45.43
2022-08-26T12:55:56.289Z,43.07
2022-08-26T12:58:28.971Z,42.62
2022-08-26T13:01:04.182Z,40.81
2022-08-26T13:03:34.640Z,40.16
2022-08-26T13:06:31.298Z,39.72
2022-08-26T13:09:16.307Z,37.29
2022-08-26T13:11:44.873Z,35.42
2022-08-26T13:14:21.086Z,33.65
2022-08-26T13:16:53.336Z,33.13
2022-08-26T13:19:24.086Z,32.28
2022-08-26T13:21:55.241Z,31.38
2022-08-26T13:24:38.321Z,30.79
2022-08-26T13:27:08.596Z,29.47
2022-08-26T13:29:36.557Z,28.54
2022-08-26T13:32:06.382Z,27.55
2022-08-26T13:34:40.430Z,26.79
2022-08-26T13:37:08.599Z,24.53
2022-08-26T13:39:38.107Z,25.08
2022-08-26T13:42:06.354Z,23.08
2022-08-26T13:44:35.086Z,22.18
2022-08-26T13:47:03.681Z,21.54
2022-08-26T13:49:31.670Z,21.08
2022-08-26T13:51:59.557Z,19.52
2022-08-26T13:54:27.478Z,18.91
2022-08-26T13:56:55.369Z,18.40
2022-08-26T13:59:24.388Z,17.85
2022-08-26T14:01:52.317Z,17.61
2022-08-26T14:04:27.299Z,17.04
2022-08-26T14:06:55.732Z,17.04
2022-08-26T14:09:24.176Z,15.45
2022-08-26T14:11:54.798Z,16.03
2022-08-26T14:14:23.519Z,15.53
2022-08-26T14:16:59.803Z,15.62
2022-08-26T14:19:29.944Z,15.05
2022-08-26T14:22:00.543Z,14.09
2022-08-26T14:24:28.924Z,14.14
2022-08-26T14:26:56.606Z,13.82
2022-08-26T14:29:24.250Z,14.11
2022-08-26T14:31:52.741Z,14.13
2022-08-26T14:34:20.392Z,13.98
2022-08-26T14:36:48.051Z,13.99
2022-08-26T14:39:15.778Z,13.67
2022-08-26T14:41:53.952Z,13.40
2022-08-26T14:44:27.930Z,13.36
2022-08-26T14:46:56.154Z,13.39
2022-08-26T14:49:25.075Z,12.77
2022-08-26T14:51:53.554Z,13.14
2022-08-26T14:54:21.524Z,12.85
2022-08-26T14:56:55.523Z,12.69
2022-08-26T14:59:31.064Z,12.54
2022-08-26T15:02:00.560Z,12.42
2022-08-26T15:04:29.270Z,12.33
2022-08-26T15:06:59.521Z,11.97
2022-08-26T15:09:28.857Z,12.37
2022-08-26T15:11:56.892Z,12.30
2022-08-26T15:14:26.019Z,12.25
2022-08-26T15:16:57.153Z,12.37
2022-08-26T15:19:26.220Z,12.23
2022-08-26T15:21:54.204Z,12.39
2022-08-26T15:24:24.243Z,12.54
2022-08-26T15:26:52.931Z,12.52
2022-08-26T15:29:22.205Z,12.45
2022-08-26T15:31:50.572Z,12.48
2022-08-26T15:34:18.730Z,12.85
2022-08-26T15:36:47.705Z,12.96
2022-08-26T15:39:17.092Z,12.87
2022-08-26T15:41:45.363Z,12.89
2022-08-26T15:44:16.073Z,12.92
2022-08-26T15:46:44.240Z,13.20
2022-08-26T15:49:18.274Z,13.23
2022-08-26T15:51:52.513Z,13.46
2022-08-26T15:54:23.152Z,13.60
2022-08-26T15:56:52.233Z,13.73
2022-08-26T15:59:22.028Z,14.41
2022-08-26T16:01:51.152Z,14.70
2022-08-26T16:04:19.174Z,15.00
2022-08-26T16:06:50.022Z,15.33
2022-08-26T16:09:19.823Z,15.55
2022-08-26T16:11:49.916Z,15.84
2022-08-26T16:14:17.972Z,15.88
2022-08-26T16:16:45.626Z,16.26
2022-08-26T16:19:13.336Z,16.86
2022-08-26T16:21:42.152Z,17.35
2022-08-26T16:24:11.446Z,17.84
2022-08-26T16:26:41.322Z,18.26
2022-08-26T16:29:12.204Z,18.66
2022-08-26T16:31:40.835Z,19.11
2022-08-26T16:34:09.488Z,19.40
2022-08-26T16:36:39.194Z,20.15
2022-08-26T16:39:08.311Z,20.47
2022-08-26T16:41:36.768Z,20.60
2022-08-26T16:44:06.893Z,21.11
2022-08-26T16:46:35.756Z,21.66
2022-08-26T16:49:04.572Z,22.10
2022-08-26T16:51:32.845Z,22.25
2022-08-26T16:54:07.564Z,23.04
2022-08-26T16:56:36.485Z,23.38
2022-08-26T16:59:06.388Z,23.61
2022-08-26T17:01:34.616Z,24.11
2022-08-26T17:04:02.732Z,24.62
2022-08-26T17:06:30.397Z,25.08
2022-08-26T17:08:58.203Z,25.42
2022-08-26T17:11:25.924Z,25.47
2022-08-26T17:13:53.529Z,25.99
2022-08-26T17:16:26.223Z,26.59
2022-08-26T17:18:57.394Z,27.56
2022-08-26T17:21:29.286Z,28.11
2022-08-26T17:23:56.982Z,28.45
2022-08-26T17:26:25.259Z,28.37
2022-08-26T17:28:53.545Z,28.42
2022-08-26T17:31:23.234Z,28.94
2022-08-26T17:33:53.881Z,29.46
2022-08-26T17:36:28.081Z,30.14
2022-08-26T17:38:57.961Z,30.63
2022-08-26T17:41:26.384Z,30.72
2022-08-26T17:43:54.463Z,31.17
2022-08-26T17:46:22.589Z,31.77
2022-08-26T17:48:50.840Z,32.26
2022-08-26T17:51:19.337Z,32.87
2022-08-26T17:53:47.933Z,33.42
2022-08-26T17:56:18.645Z,33.93
2022-08-26T17:58:48.202Z,34.56
2022-08-26T18:01:21.011Z,35.07
2022-08-26T18:03:49.599Z,35.37
2022-08-26T18:06:17.802Z,35.44
2022-08-26T18:08:45.968Z,35.64
2022-08-26T18:11:18.642Z,35.73
2022-08-26T18:13:47.853Z,35.98
2022-08-26T18:16:17.717Z,36.27
2022-08-26T18:18:47.176Z,36.56
2022-08-26T18:21:17.735Z,36.71
2022-08-26T18:23:46.350Z,36.88
2022-08-26T18:26:17.758Z,37.06
2022-08-26T18:28:45.461Z,36.88
2022-08-26T18:31:13.285Z,37.08
2022-08-26T18:33:42.988Z,37.64
2022-08-26T18:36:20.251Z,38.91
2022-08-26T18:38:50.693Z,40.56
2022-08-26T18:41:20.885Z,40.53
2022-08-26T18:43:50.640Z,40.96
2022-08-26T18:46:20.345Z,40.85
2022-08-26T18:48:51.099Z,41.41
2022-08-26T18:51:23.045Z,41.81
2022-08-26T18:53:51.292Z,42.08
2022-08-26T18:56:19.825Z,42.12
2022-08-26T18:58:48.278Z,41.87
2022-08-26T19:01:18.806Z,41.85
2022-08-26T19:03:47.040Z,41.62
2022-08-26T19:06:20.852Z,41.33
2022-08-26T19:08:50.067Z,41.42
2022-08-26T19:11:31.866Z,42.03
2022-08-26T19:14:07.891Z,42.33
2022-08-26T19:16:37.526Z,42.80
2022-08-26T19:19:05.784Z,42.88
2022-08-26T19:21:35.830Z,42.96
2022-08-26T19:24:07.195Z,43.28
2022-08-26T19:26:36.504Z,43.18
2022-08-26T19:29:04.976Z,43.36
2022-08-26T19:31:33.386Z,43.67
2022-08-26T19:34:01.126Z,43.89
2022-08-26T19:36:29.171Z,43.77
2022-08-26T19:38:57.409Z,44.07
2022-08-26T19:41:36.537Z,44.38
2022-08-26T19:44:09.761Z,44.47
2022-08-26T19:49:06.391Z,44.79
2022-08-26T19:51:35.418Z,44.96
2022-08-26T19:54:04.265Z,44.94
2022-08-26T19:56:31.925Z,45.28
2022-08-26T19:58:59.535Z,45.33
2022-08-26T20:01:27.243Z,45.47
2022-08-26T20:06:23.905Z,46.18
2022-08-26T20:08:52.115Z,46.10
2022-08-26T20:11:23.906Z,46.26
2022-08-26T20:13:51.600Z,46.40
2022-08-26T20:16:19.314Z,46.66
2022-08-26T20:19:03.034Z,46.71
2022-08-26T20:21:35.840Z,46.85
2022-08-26T20:24:10.616Z,47.09
2022-08-26T20:26:40.894Z,47.32
2022-08-26T20:29:10.562Z,47.51
2022-08-26T20:31:39.522Z,47.50
2022-08-26T20:34:07.568Z,47.63
2022-08-26T20:36:37.027Z,47.29
2022-08-26T20:39:05.133Z,47.64
2022-08-26T20:41:33.513Z,47.94
2022-08-26T20:44:02.080Z,47.77
2022-08-26T20:46:29.801Z,47.80
2022-08-26T20:48:57.726Z,48.03
2022-08-26T20:51:27.008Z,48.12
2022-08-26T20:53:54.719Z,48.59
2022-08-26T20:56:24.814Z,48.43
2022-08-26T20:58:54.678Z,48.60
2022-08-26T21:01:25.739Z,48.76
2022-08-26T21:03:55.152Z,49.01
2022-08-26T21:06:23.687Z,49.03
2022-08-26T21:08:51.614Z,49.23
2022-08-26T21:11:20.912Z,49.32
2022-08-26T21:14:04.444Z,49.73
2022-08-26T21:16:37.242Z,50.01
2022-08-26T21:19:08.177Z,49.93
2022-08-26T21:21:35.942Z,50.09
2022-08-26T21:24:04.301Z,50.27
2022-08-26T21:26:32.272Z,50.20
2022-08-26T21:29:01.374Z,50.46
2022-08-26T21:45:51.070Z,51.28
2022-08-26T21:48:19.110Z,51.30
2022-08-26T21:50:46.899Z,51.46
2022-08-26T21:53:21.101Z,51.46
2022-08-26T21:55:49.128Z,51.62
2022-08-26T21:58:16.780Z,51.82
2022-08-26T22:00:50.036Z,51.73
2022-08-26T22:03:18.023Z,52.02
2022-08-26T22:05:51.203Z,52.31
2022-08-26T22:08:20.881Z,52.33
2022-08-26T22:10:52.903Z,52.47
2022-08-26T22:13:29.284Z,52.50
2022-08-26T22:15:58.537Z,52.76
2022-08-26T22:18:28.759Z,52.70
2022-08-26T22:21:00.529Z,52.87
2022-08-26T22:23:28.369Z,53.18
2022-08-26T22:25:56.176Z,53.23
2022-08-26T22:28:24.181Z,53.16
2022-08-26T22:30:52.279Z,53.27
2022-08-26T22:33:20.108Z,53.46
2022-08-26T22:35:50.708Z,53.54
2022-08-26T22:38:19.841Z,53.87
2022-08-26T22:40:50.749Z,53.84
2022-08-26T22:43:19.072Z,53.87
2022-08-26T22:45:48.733Z,53.82
2022-08-26T22:48:18.764Z,53.86
2022-08-26T22:50:48.286Z,54.24
2022-08-26T22:53:17.653Z,54.30
2022-08-26T22:55:46.128Z,54.30
2022-08-26T22:58:16.343Z,54.44
2022-08-26T23:00:45.835Z,54.50
2022-08-26T23:03:15.879Z,54.72
2022-08-26T23:05:44.982Z,54.92
2022-08-26T23:08:13.941Z,54.82
2022-08-26T23:10:44.586Z,55.05
2022-08-26T23:13:13.217Z,55.26
2022-08-26T23:15:42.315Z,55.26
2022-08-26T23:18:11.296Z,55.33
2022-08-26T23:20:40.721Z,55.54
2022-08-26T23:23:08.507Z,55.53
2022-08-26T23:25:36.159Z,55.82
2022-08-26T23:28:04.391Z,55.92
2022-08-26T23:30:34.308Z,55.93
2022-08-26T23:33:01.983Z,56.23
2022-08-26T23:35:29.755Z,56.12
2022-08-26T23:37:58.982Z,56.39
2022-08-26T23:40:32.044Z,56.50
2022-08-26T23:43:03.276Z,56.44
2022-08-26T23:45:31.860Z,56.74
2022-08-26T23:48:00.139Z,56.97
2022-08-26T23:50:47.076Z,57.15
2022-08-26T23:53:19.941Z,57.33
2022-08-26T23:55:50.228Z,57.33
2022-08-26T23:58:20.284Z,57.47
